Mandaree, ND

7:04 PM CST on March 02, 2015 (GMT -0600)
Watford City | Change Station
CLOSE
Current Station
Airport
Location: Watford City,
Elevation: 2110 ft
Nearby Weather Stations
Active Advisory: Wind Advisory

Elev 2110 ft 47.80 °N, 103.26 °W | Updated 9 minutes ago

Clear
Clear
25 °F
Feels Like 8 °F
N
29
Wind Variable Wind from NNW
Gusts 36 mph

Today
High -- | Low -- °F
--% Chance of Precip.
Yesterday
High -- | Low -- °F
Precip. -- in
7:30 AM 6:36 PM
Waxing Gibbous, 93% visible
Pressure 29.77 in
Visibility 10.0 miles
Clouds Clear
Windchill 8 °F
Dew Point 19 °F
Humidity 80%
Rainfall 0.00 in
Snow Depth Not available.
UV 0 out of 12
Pollen .10 out of 12
Air Quality Not available.
Flu Activity Not available.
METAR KS25 030055Z AUTO 33025G31KT 10SM CLR M04/M07 A2977 RMK AO2

More Conditions Fewer Conditions

Pressure 29.77 in
Visibility 10.0 miles
Clouds Clear
Windchill 8 °F
Dew Point 19 °F
Humidity 80%
Rainfall 0.00 in
Snow Depth Not available.
UV 0 out of 12
Pollen .10 out of 12
Air Quality Not available.
Flu Activity Not available.
METAR KS25 030055Z AUTO 33025G31KT 10SM CLR M04/M07 A2977 RMK AO2

More Conditions Fewer Conditions

10-Day Weather Forecast

Almanac

Astronomy

Mar. 02, 2015 Rise Set
Actual Time
Civil Twilight
Nautical Twilight
Astronomical Twilight
Moon
Length of Visible Light
Length of Day
Tomorrow will be .
, % of the Moon is Illuminated

Today's Extremes

State Highs State Lows

Community

WunderPhotos

Upload Photos

1,802,016 photos uploaded!

WunderBlogs® & News

Nearby

Air Quality

  Air Quality AQ Index Pollutant
Not available.

Snow Depth

Station Depth Elevation

Earthquake Activity

City Distance Mag. Time & Date
Minimum magnitude displayed is 2.5.

Coastal Water Temperatures

Place Temperature

Nearby Weather Stations

Wind Advisory
Statement as of 1:25 PM MST on March 02, 2015

... Wind Advisory in effect from midnight CST /11 PM MST/ tonight
to noon CST /11 am MST/ Tuesday...

The National Weather Service in Bismarck has issued a Wind
Advisory... which is in effect from midnight CST /11 PM MST/
tonight to noon CST /11 am MST/ Tuesday.

* Timing... tonight through Tuesday morning.

* Winds... northwesterly sustained 30 mph. Gusts to 45 mph.

* Impacts... difficult driving conditions for high profile
vehicles. Working on elevated structures will be hazardous.
Patchy blowing snow near the Missouri River.